Local Weather Data

Local Time:

Forecast for Sydney, NSW issued on 2018-06-21 at 15:48
Date 2018-06-22 Max 17 °C Mostly sunny.
Weather data from Terrey Hills NSW Lat: -33.7 Lon: 151.2
Date/Time Temp °C Humidity
%
Wind km/h Rain since 9.00am
mm
Actual Apparent Dew Point Delta Gust Speed Dir
21/11:30pm 9.9 8.6 9.9 0 100 9 7 W 0.2
21/11:00pm 10 8.7 10 0 100 9 7 W 0.2
21/10:30pm 10.2 9 10.2 0 100 9 7 W 0.2
21/10:00pm 10.1 9 10.1 0 100 7 6 WNW 0.2
21/09:30pm 9.7 8.3 9.7 0 100 9 7 W 0.2
21/09:00pm 11 10.2 11 0 100 7 6 NNW 0.2
21/08:30pm 11.3 11 11.3 0 100 6 4 NNE 0.2
21/08:00pm 10.8 10.3 10.8 0 100 7 4 ENE 0.2
21/07:30pm 11 11.3 11 0 100 0 0 CALM 0.2
21/07:00pm 11.3 11.7 11.3 0 100 0 0 CALM 0.2
21/06:30pm 11.6 12.1 11.6 0 100 0 0 CALM 0.2
21/06:00pm 11.6 12.1 11.6 0 100 0 0 CALM 0.2
21/05:30pm 12.3 12.3 12.3 0 100 6 4 ESE 0.2
21/05:00pm 12.4 13.2 12.4 0 100 0 0 CALM 0.2
21/04:30pm 12.9 13.8 12.9 0 100 0 0 CALM 0.2
21/04:00pm 13.8 14.8 13.2 0.3 96 0 0 CALM 0.2
21/03:30pm 14.3 15.2 13 0.7 92 0 0 CALM 0.2
21/03:00pm 14.3 15.2 12.9 0.8 91 0 0 CALM 0.2
21/02:30pm 13.7 14.2 12.9 0.4 95 6 2 W 0.2
21/02:00pm 13.7 13.5 13.1 0.3 96 7 6 W 0.2
21/01:30pm 13.8 14.1 13.5 0.2 98 7 4 WNW 0.2
21/01:00pm 13 13.2 13 0 100 6 4 NW 0.2
21/12:30pm 12.8 13.3 12.8 0 100 6 2 NW 0.2
21/12:00pm 12.4 12.4 12.4 0 100 6 4 WSW 0.2
21/11:30am 12.1 11.4 12.1 0 100 11 7 WSW 0.2
21/11:00am 12.3 11.9 12.3 0 100 9 6 SW 0.2
21/10:30am 11.9 11.4 11.9 0 100 11 6 WSW 0.2
21/10:00am 11.5 10.8 11.5 0 100 9 6 W 0.2
21/09:30am 12.2 12.1 12.2 0 100 7 4 WSW 0.2
21/09:00am 11.9 11.2 11.9 0 100 11 7 W 0.6
21/08:30am 11.6 11 11.6 0 100 9 6 W 0.6
21/08:00am 11.4 10.1 11.4 0 100 13 9 SW 0.6
21/07:30am 10.9 9.9 10.9 0 100 11 7 SW 0.6
21/07:00am 9.6 8.4 9.6 0 100 9 6 W 0.4
21/06:30am 9.7 8.3 9.7 0 100 9 7 W 0.4
21/06:00am 9.9 7.8 9.9 0 100 15 11 WSW 0.4
21/05:30am 9.9 7.8 9.6 0.2 98 19 11 WSW 0.2
21/05:00am 10.3 9 10 0.2 98 13 7 WSW 0.2
21/04:30am 10 8.1 8.9 0.5 93 13 9 W 0.2
21/04:00am 10.4 8.5 9.2 0.6 92 15 9 WSW 0.2
21/03:30am 10.6 9.4 9.5 0.6 93 7 6 SW 0.2
21/03:00am 10.4 8.6 9.6 0.4 95 13 9 WNW 0.2
21/02:30am 10.5 8.4 9.7 0.4 95 15 11 W 0.2
21/02:00am 10.7 9.4 9.8 0.5 94 13 7 W 0.2
21/01:30am 11.2 9.9 10 0.6 92 11 7 WSW 0.2
21/01:00am 11.4 10.1 10.1 0.7 92 13 7 WSW 0.2
21/12:30am 11.4 10.2 10.3 0.6 93 11 7 WSW 0.2
21/12:00am 11.5 10.5 10.2 0.7 92 9 6 WSW 0.2
20/11:30pm 11.8 10.6 10.4 0.7 91 11 7 WSW 0.2
20/11:00pm 12.1 10.6 10.7 0.7 91 15 9 SSW 0.2
20/10:30pm 12.3 11.3 11 0.7 92 19 7 SSW 0.2
20/10:00pm 12.4 10.6 11 0.7 91 20 11 SSW 0.2
20/09:30pm 12.4 10.6 11 0.7 91 20 11 SSW 0.2
20/09:00pm 12.6 10.5 11 0.8 90 20 13 SSW 0.2
20/08:30pm 12.6 10.8 10.8 0.9 89 19 11 SSW 0.0
20/08:00pm 12.5 10.8 11.1 0.7 91 20 11 SSW 0.0
20/07:30pm 12.3 10.9 11 0.7 92 19 9 SW 0.0
20/07:00pm 12.4 10.3 11 0.7 91 20 13 SSW 0.0
20/06:30pm 12.2 10.9 11.1 0.6 93 19 9 SW 0.0
20/06:00pm 11.9 10.5 11 0.5 94 17 9 SW 0.0
20/05:30pm 12 10.6 10.9 0.6 93 17 9 SSW 0.0
20/05:00pm 12.7 11.4 11.1 0.8 90 20 9 SSW 0.0
20/04:30pm 13.3 11.5 11 1.2 86 19 11 SSW 0.0
20/04:00pm 14.7 14 12 1.5 84 13 7 SSW 0.0
20/03:30pm 14.3 12.8 12 1.3 86 19 11 SSW 0.0
20/03:00pm 14 12.8 11.7 1.2 86 17 9 S 0.0
20/02:30pm 14.3 13.2 11.8 1.4 85 17 9 S 0.0
20/02:00pm 14.5 13.4 11.8 1.5 84 17 9 SSW 0.0
20/01:30pm 14.8 13.9 11.2 1.9 79 11 7 S 0.0
20/01:00pm 15 13.3 11.2 2 78 26 11 S 0.0
20/12:30pm 14.4 13.7 12.1 1.3 86 17 7 SSW 0.0
20/12:00pm 15.2 14.6 12.2 1.6 82 15 7 S 0.0
20/11:30am 14.9 14 12.6 1.3 86 17 9 SSW 0.0
20/11:00am 14.1 12.7 12.1 1.1 88 19 11 SSW 0.0
20/10:30am 13 11.8 11.7 0.7 92 15 9 WSW 0.0
20/10:00am 12.5 10.9 11.7 0.4 95 17 11 WSW 0.0
20/09:30am 12.3 10.7 11.7 0.3 96 20 11 WSW 0.0
20/09:00am 11.6 9.6 11.4 0.1 99 19 13 WSW 19.8
20/08:30am 11.2 9.1 11.2 0 100 24 13 SW 19.8
20/08:00am 10.6 8 10.6 0 100 20 15 WSW 19.8
20/07:30am 10.9 9.1 10.9 0 100 20 11 SW 19.8
20/07:00am 10.8 8.6 10.8 0 100 24 13 SSW 19.8
20/06:30am 11.2 8.7 11.2 0 100 24 15 SSW 19.8
20/06:00am 10.9 8.4 10.9 0 100 28 15 SSW 19.8
20/05:30am 10.9 8 10.9 0 100 24 17 SSW 19.8
20/05:00am 10.6 8 10.6 0 100 24 15 SSW 19.4
20/04:30am 10.5 7.8 10.5 0 100 28 15 SW 19.4
20/04:00am 10.4 7.7 10.4 0 100 24 15 SW 19.2
20/03:30am 10.4 7.7 10.4 0 100 28 15 SW 19.0
20/03:00am 10.4 7 10.4 0 100 30 19 WSW 19.0
20/02:30am 10.7 7.7 10.7 0 100 28 17 WSW 18.8
20/02:00am 10.8 8.2 10.8 0 100 28 15 WSW 18.8
20/01:30am 11 8.9 11 0 100 20 13 SW 18.8
20/01:00am 11.2 9.5 11.2 0 100 24 11 SW 18.0
20/12:30am 11.1 9.4 11.1 0 100 17 11 SW 16.8
20/12:00am 10.9 8.7 10.9 0 100 26 13 SW 15.2
19/11:30pm 11.2 9.1 11.2 0 100 22 13 SSW 15.0
19/11:00pm 10.9 8.7 10.9 0 100 24 13 SW 14.2
19/10:30pm 10.7 7.3 10.7 0 100 33 19 SW 14.2
19/10:00pm 10.4 7.3 10.4 0 100 28 17 SW 14.0
19/09:30pm 10.3 6.8 10.3 0 100 28 19 WSW 14.0
19/09:00pm 10.3 7.6 10.3 0 100 28 15 SW 14.0
19/08:30pm 10.4 7.7 10.4 0 100 28 15 SW 14.0
19/08:00pm 10.4 7.7 10.4 0 100 30 15 WSW 12.6
19/07:30pm 10.1 6.6 10.1 0 100 30 19 WSW 12.4
19/07:00pm 9.7 6.1 9.7 0 100 33 19 WSW 12.4
19/06:30pm 9.6 6.7 9.6 0 100 24 15 SW 12.4
19/06:00pm 10.2 7.8 10.2 0 100 26 13 SSW 12.0
19/05:30pm 10.4 7 10.4 0 100 43 19 SSE 10.4
19/05:00pm 12.4 9.2 11.1 0.7 92 32 19 SW 6.4
19/04:30pm 11.9 8.7 11.3 0.3 96 33 19 SW 6.4
19/04:00pm 11.3 8.1 11.3 0 100 33 19 SW 6.4
19/03:30pm 11.1 8.2 11.1 0 100 32 17 SW 5.6
19/03:00pm 11.6 8.2 11.1 0.3 97 39 20 WSW 5.2
19/02:30pm 10.9 7.6 10.9 0 100 32 19 SW 5.0
19/02:00pm 10.3 6.8 10.3 0 100 35 19 SW 5.0
19/01:30pm 10.3 5.9 10.3 0 100 43 24 SW 4.6
19/01:00pm 10.8 7.8 10.8 0 100 37 17 SW 4.0
19/12:30pm 10.3 6.3 10.3 0 100 39 22 SSW 4.0
19/12:07pm 10.7 5.6 10.7 0 100 50 28 SW 3.2
19/12:00pm 11.3 7.5 11.3 0 100 41 22 SW 3.0
19/11:30am 11 7.5 11 0 100 35 20 SW 2.8
19/11:00am 10.6 7.2 10.6 0 100 32 19 SW 1.6
19/10:30am 9.9 6.3 9.9 0 100 33 19 SW 0.8
19/10:00am 9.5 6.2 9.5 0 100 28 17 WSW 0.6
19/09:30am 8.9 5.1 8.9 0 100 26 19 WSW 0.2
19/09:00am 8.8 5.3 8.8 0 100 26 17 WSW 12.4
19/08:30am 9.1 5.1 9.1 0 100 35 20 SW 11.0
19/08:00am 8.7 4.8 8.7 0 100 32 19 SW 9.2
19/07:30am 8.5 4 8.5 0 100 35 22 WSW 9.2
19/07:00am 8.2 4 8.2 0 100 33 20 WSW 9.0
19/06:30am 8.1 3.5 8.1 0 100 35 22 WSW 8.4
19/06:00am 7.7 3.6 7.7 0 100 30 19 WSW 7.4
19/05:30am 7.6 3.2 7.6 0 100 30 20 WSW 4.4
19/05:00am 7.7 3.9 7.6 0 99 28 17 WSW 2.2
19/04:30am 8.2 4 7.3 0.4 94 33 19 WSW 1.2
19/04:00am 9 4.5 6.8 1 86 43 20 SW 0.6
19/03:30am 9.3 4.5 5.7 1.7 78 32 20 SW 0.6
19/03:00am 9.2 4.4 5.4 1.7 77 35 20 SW 0.6
19/02:30am 9.3 4.9 4.9 2 74 26 17 SW 0.6
19/02:00am 9.1 4.7 4.7 2 74 26 17 WSW 0.6
19/01:30am 9 4.2 4.8 1.9 75 28 19 WSW 0.6
19/01:00am 9.3 4.4 5.1 1.9 75 39 20 SW 0.6
19/12:30am 9.4 4.6 5.4 1.8 76 32 20 SW 0.6
19/12:00am 9.7 5.6 6.1 1.7 78 26 17 WSW 0.6
";